| time (UTC) | temp F | wind direction | speed MPH | gust MPH | rain 1hr in | rain 24hr in | rain mn in | humidity % | barometer mb |
| 20260903192653 | 99 | 139 | 7.0 | 15.0 | 0.00 | 0.00 | 0.00 | 22 | 1007.9 |
| 20260903192152 | 99 | 153 | 5.0 | 15.0 | 0.00 | 0.00 | 0.00 | 22 | 1008.0 |
| 20260903191654 | 98 | 214 | 4.0 | 10.0 | 0.00 | 0.00 | 0.00 | 24 | 1008.1 |
| 20260903191424 | 98 | 276 | 6.0 | 18.0 | 0.00 | 0.00 | 0.00 | 24 | 1008.2 |
| 20260903190650 | 98 | 213 | 5.0 | 18.0 | 0.00 | 0.00 | 0.00 | 24 | 1008.3 |
| 20260903190149 | 98 | 237 | 2.0 | 9.0 | 0.00 | 0.00 | 0.00 | 24 | 1008.3 |
| 20260903185647 | 97 | 199 | 5.0 | 17.0 | 0.00 | 0.00 | 0.00 | 25 | 1008.4 |
| 20260903185146 | 97 | 206 | 4.0 | 17.0 | 0.00 | 0.00 | 0.00 | 26 | 1008.6 |
| 20260903184647 | 97 | 276 | 4.0 | 14.0 | 0.00 | 0.00 | 0.00 | 25 | 1008.7 |
| 20260903184147 | 97 | 296 | 7.0 | 15.0 | 0.00 | 0.00 | 0.00 | 26 | 1008.8 |
| 20260903183645 | 97 | 188 | 5.0 | 15.0 | 0.00 | 0.00 | 0.00 | 26 | 1008.9 |
| 20260903183145 | 97 | 159 | 4.0 | 10.0 | 0.00 | 0.00 | 0.00 | 25 | 1008.9 |
| 20260903182645 | 97 | 236 | 5.0 | 14.0 | 0.00 | 0.00 | 0.00 | 24 | 1009.1 |
| 20260903182143 | 96 | 219 | 5.0 | 14.0 | 0.00 | 0.00 | 0.00 | 25 | 1009.2 |
| 20260903181643 | 96 | 189 | 5.0 | 12.0 | 0.00 | 0.00 | 0.00 | 26 | 1009.2 |
| 20260903181142 | 96 | 224 | 6.0 | 12.0 | 0.00 | 0.00 | 0.00 | 27 | 1009.3 |
| 20260903180644 | 96 | 224 | 8.0 | 16.0 | 0.00 | 0.00 | 0.00 | 27 | 1009.4 |
| 20260903180145 | 96 | 193 | 9.0 | 16.0 | 0.00 | 0.00 | 0.00 | 26 | 1009.4 |
| 20260903175645 | 95 | 253 | 7.0 | 14.0 | 0.00 | 0.00 | 0.00 | 29 | 1009.6 |
| 20260903175641 | 96 | 301 | 7.0 | 14.0 | 0.00 | 0.00 | 0.00 | 29 | 1009.5 |
| 20260903174638 | 95 | 0 | 7.0 | 16.0 | 0.00 | 0.00 | 0.00 | 28 | 1009.6 |
| 20260903174139 | 94 | 158 | 9.0 | 16.0 | 0.00 | 0.00 | 0.00 | 29 | 1009.6 |
| 20260903173636 | 94 | 238 | 11.0 | 17.0 | 0.00 | 0.00 | 0.00 | 29 | 1009.7 |
| 20260903173137 | 94 | 233 | 11.0 | 17.0 | 0.00 | 0.00 | 0.00 | 30 | 1009.7 |
| 20260903172636 | 94 | 164 | 9.0 | 17.0 | 0.00 | 0.00 | 0.00 | 30 | 1009.8 |
| 20260903172139 | 94 | 220 | 9.0 | 17.0 | 0.00 | 0.00 | 0.00 | 29 | 1009.9 |
| 20260903171635 | 94 | 232 | 9.0 | 15.0 | 0.00 | 0.00 | 0.00 | 30 | 1009.9 |
| 20260903171408 | 94 | 0 | 8.0 | 17.0 | 0.00 | 0.00 | 0.00 | 31 | 1010.0 |
| 20260903170635 | 93 | 203 | 9.0 | 17.0 | 0.00 | 0.00 | 0.00 | 30 | 1010.1 |
| 20260903170133 | 93 | 289 | 9.0 | 20.0 | 0.00 | 0.00 | 0.00 | 31 | 1010.0 |
| 20260903165632 | 93 | 217 | 11.0 | 20.0 | 0.00 | 0.00 | 0.00 | 32 | 1010.0 |
| 20260903165131 | 92 | 192 | 11.0 | 18.0 | 0.00 | 0.00 | 0.00 | 31 | 1010.0 |
| 20260903164631 | 92 | 209 | 9.0 | 17.0 | 0.00 | 0.00 | 0.00 | 32 | 1010.0 |
| 20260903164129 | 93 | 229 | 10.0 | 20.0 | 0.00 | 0.00 | 0.00 | 31 | 1010.1 |
| 20260903163629 | 92 | 328 | 10.0 | 20.0 | 0.00 | 0.00 | 0.00 | 31 | 1010.0 |
| 20260903163128 | 92 | 254 | 9.0 | 20.0 | 0.00 | 0.00 | 0.00 | 32 | 1010.0 |
| 20260903162626 | 92 | 309 | 9.0 | 20.0 | 0.00 | 0.00 | 0.00 | 33 | 1010.1 |
| 20260903162127 | 91 | 247 | 10.0 | 19.0 | 0.00 | 0.00 | 0.00 | 32 | 1010.0 |
| 20260903161626 | 91 | 248 | 10.0 | 19.0 | 0.00 | 0.00 | 0.00 | 33 | 1010.1 |
| 20260903161357 | 91 | 224 | 10.0 | 17.0 | 0.00 | 0.00 | 0.00 | 34 | 1010.2 |
| 20260903160626 | 90 | 242 | 10.0 | 18.0 | 0.00 | 0.00 | 0.00 | 34 | 1010.1 |
| 20260903160125 | 90 | 207 | 10.0 | 18.0 | 0.00 | 0.00 | 0.00 | 34 | 1010.2 |
| 20260903155623 | 89 | 228 | 11.0 | 21.0 | 0.00 | 0.00 | 0.00 | 35 | 1010.2 |
| 20260903155123 | 89 | 162 | 12.0 | 21.0 | 0.00 | 0.00 | 0.00 | 37 | 1010.1 |
| 20260903154622 | 88 | 207 | 13.0 | 19.0 | 0.00 | 0.00 | 0.00 | 36 | 1010.1 |
| 20260903154120 | 88 | 0 | 11.0 | 21.0 | 0.00 | 0.00 | 0.00 | 37 | 1010.2 |
| 20260903153621 | 88 | 209 | 9.0 | 21.0 | 0.00 | 0.00 | 0.00 | 37 | 1010.2 |
| 20260903153351 | 87 | 260 | 9.0 | 18.0 | 0.00 | 0.00 | 0.00 | 38 | 1010.2 |
| 20260903152621 | 87 | 314 | 10.0 | 19.0 | 0.00 | 0.00 | 0.00 | 40 | 1010.1 |
| 20260903152120 | 86 | 0 | 10.0 | 22.0 | 0.00 | 0.00 | 0.00 | 40 | 1010.2 |
| 20260903151621 | 85 | 0 | 10.0 | 22.0 | 0.00 | 0.00 | 0.00 | 40 | 1010.2 |
| 20260903151117 | 85 | 228 | 9.0 | 18.0 | 0.00 | 0.00 | 0.00 | 41 | 1010.3 |
| 20260903150616 | 84 | 241 | 7.0 | 16.0 | 0.00 | 0.00 | 0.00 | 42 | 1010.3 |
| 20260903150116 | 83 | 219 | 8.0 | 16.0 | 0.00 | 0.00 | 0.00 | 45 | 1010.4 |
| 20260903145616 | 82 | 124 | 8.0 | 17.0 | 0.00 | 0.00 | 0.00 | 46 | 1010.5 |
| 20260903145118 | 81 | 223 | 8.0 | 17.0 | 0.00 | 0.00 | 0.00 | 48 | 1010.5 |
| 20260903144847 | 80 | 134 | 8.0 | 14.0 | 0.00 | 0.00 | 0.00 | 50 | 1010.6 |
| 20260903144114 | 79 | 0 | 9.0 | 14.0 | 0.00 | 0.00 | 0.00 | 49 | 1010.6 |
| 20260903143613 | 78 | 219 | 10.0 | 17.0 | 0.00 | 0.00 | 0.00 | 50 | 1010.6 |
| 20260903143113 | 77 | 211 | 11.0 | 17.0 | 0.00 | 0.00 | 0.00 | 50 | 1010.7 |
| 20260903142842 | 77 | 209 | 10.0 | 14.0 | 0.00 | 0.00 | 0.00 | 51 | 1010.8 |
| 20260903142110 | 76 | 0 | 10.0 | 14.0 | 0.00 | 0.00 | 0.00 | 53 | 1010.7 |
| 20260903141611 | 76 | 208 | 9.0 | 14.0 | 0.00 | 0.00 | 0.00 | 54 | 1010.7 |
| 20260903141109 | 75 | 215 | 10.0 | 14.0 | 0.00 | 0.00 | 0.00 | 55 | 1010.8 |
| 20260903140609 | 75 | 224 | 9.0 | 15.0 | 0.00 | 0.00 | 0.00 | 55 | 1010.7 |
| 20260903140108 | 74 | 226 | 7.0 | 15.0 | 0.00 | 0.00 | 0.00 | 55 | 1010.7 |
| 20260903135608 | 74 | 229 | 5.0 | 12.0 | 0.00 | 0.00 | 0.00 | 57 | 1010.6 |
| 20260903135107 | 73 | 234 | 4.0 | 9.0 | 0.00 | 0.00 | 0.00 | 57 | 1010.5 |
| 20260903134837 | 73 | 0 | 5.0 | 10.0 | 0.00 | 0.00 | 0.00 | 57 | 1010.5 |
| 20260903134106 | 72 | 203 | 6.0 | 11.0 | 0.00 | 0.00 | 0.00 | 59 | 1010.4 |
| 20260903133605 | 72 | 226 | 8.0 | 12.0 | 0.00 | 0.00 | 0.00 | 61 | 1010.4 |
| 20260903133104 | 71 | 0 | 9.0 | 13.0 | 0.00 | 0.00 | 0.00 | 59 | 1010.3 |
| 20260903132835 | 71 | 216 | 9.0 | 13.0 | 0.00 | 0.00 | 0.00 | 58 | 1010.3 |
| 20260903132104 | 72 | 212 | 8.0 | 13.0 | 0.00 | 0.00 | 0.00 | 59 | 1010.4 |
| 20260903131600 | 71 | 0 | 8.0 | 14.0 | 0.00 | 0.00 | 0.00 | 60 | 1010.4 |
| 20260903131331 | 71 | 224 | 8.0 | 14.0 | 0.00 | 0.00 | 0.00 | 61 | 1010.3 |
| 20260903130601 | 71 | 221 | 8.0 | 14.0 | 0.00 | 0.00 | 0.00 | 61 | 1010.4 |
| 20260903130100 | 70 | 207 | 8.0 | 11.0 | 0.00 | 0.00 | 0.00 | 60 | 1010.4 |
| 20260903125600 | 69 | 265 | 7.0 | 10.0 | 0.00 | 0.00 | 0.00 | 61 | 1010.3 |
| 20260903125100 | 69 | 199 | 7.0 | 10.0 | 0.00 | 0.00 | 0.00 | 61 | 1010.4 |
| 20260903124558 | 69 | 215 | 7.0 | 10.0 | 0.00 | 0.00 | 0.00 | 61 | 1010.4 |
| 20260903124057 | 69 | 221 | 7.0 | 10.0 | 0.00 | 0.00 | 0.00 | 60 | 1010.3 |
| 20260903123554 | 70 | 198 | 8.0 | 12.0 | 0.00 | 0.00 | 0.00 | 60 | 1010.1 |
| 20260903123054 | 69 | 208 | 8.0 | 12.0 | 0.00 | 0.00 | 0.00 | 60 | 1010.1 |
| 20260903122553 | 69 | 214 | 7.0 | 10.0 | 0.00 | 0.00 | 0.00 | 60 | 1010.1 |
| 20260903122052 | 69 | 210 | 7.0 | 11.0 | 0.00 | 0.00 | 0.00 | 59 | 1010.2 |
| 20260903121552 | 70 | 189 | 7.0 | 11.0 | 0.00 | 0.00 | 0.00 | 59 | 1010.1 |
| 20260903121323 | 69 | 248 | 7.0 | 11.0 | 0.00 | 0.00 | 0.00 | 61 | 1010.1 |
| 20260903120550 | 69 | 222 | 7.0 | 10.0 | 0.00 | 0.00 | 0.00 | 60 | 1010.0 |
| 20260903120320 | 69 | 213 | 6.0 | 8.0 | 0.00 | 0.00 | 0.00 | 60 | 1010.0 |
| 20260903115821 | 69 | 213 | 5.0 | 8.0 | 0.00 | 0.00 | 0.00 | 60 | 1010.0 |
| 20260903115048 | 69 | 198 | 5.0 | 8.0 | 0.00 | 0.00 | 0.00 | 60 | 1010.0 |
| 20260903114548 | 70 | 212 | 6.0 | 9.0 | 0.00 | 0.00 | 0.00 | 59 | 1009.9 |
| 20260903114046 | 70 | 208 | 7.0 | 11.0 | 0.00 | 0.00 | 0.00 | 59 | 1010.0 |
| 20260903113546 | 70 | 205 | 7.0 | 11.0 | 0.00 | 0.00 | 0.00 | 59 | 1010.0 |
| 20260903113047 | 70 | 216 | 7.0 | 10.0 | 0.00 | 0.00 | 0.00 | 58 | 1010.0 |
| 20260903112544 | 71 | 203 | 7.0 | 10.0 | 0.00 | 0.00 | 0.00 | 58 | 1009.9 |
| 20260903112315 | 71 | 214 | 6.0 | 9.0 | 0.00 | 0.00 | 0.00 | 58 | 1010.0 |
| 20260903111544 | 71 | 221 | 6.0 | 9.0 | 0.00 | 0.00 | 0.00 | 58 | 1010.0 |
| 20260903111044 | 70 | 219 | 5.0 | 8.0 | 0.00 | 0.00 | 0.00 | 58 | 1009.9 |
| 20260903110544 | 71 | 226 | 5.0 | 9.0 | 0.00 | 0.00 | 0.00 | 58 | 1010.0 |
| 20260903110044 | 71 | 203 | 6.0 | 9.0 | 0.00 | 0.00 | 0.00 | 58 | 1010.0 |
| 20260903105540 | 71 | 217 | 7.0 | 9.0 | 0.00 | 0.00 | 0.00 | 57 | 1010.0 |
| 20260903105040 | 71 | 193 | 7.0 | 9.0 | 0.00 | 0.00 | 0.00 | 57 | 1010.0 |
| 20260903104538 | 72 | 186 | 7.0 | 10.0 | 0.00 | 0.00 | 0.00 | 56 | 1010.0 |
| 20260903104038 | 72 | 196 | 7.0 | 10.0 | 0.00 | 0.00 | 0.00 | 56 | 1010.0 |
| 20260903103538 | 72 | 195 | 7.0 | 10.0 | 0.00 | 0.00 | 0.00 | 56 | 1010.1 |
| 20260903103038 | 72 | 210 | 7.0 | 10.0 | 0.00 | 0.00 | 0.00 | 56 | 1010.1 |
| 20260903102809 | 72 | 210 | 7.0 | 14.0 | 0.00 | 0.00 | 0.00 | 56 | 1010.1 |
| 20260903102309 | 72 | 218 | 8.0 | 14.0 | 0.00 | 0.00 | 0.00 | 55 | 1010.1 |
| 20260903101538 | 72 | 192 | 7.0 | 12.0 | 0.00 | 0.00 | 0.00 | 55 | 1010.1 |
| 20260903101038 | 72 | 193 | 7.0 | 11.0 | 0.00 | 0.00 | 0.00 | 55 | 1010.0 |
| 20260903100538 | 73 | 195 | 6.0 | 10.0 | 0.00 | 0.00 | 0.00 | 55 | 1010.0 |
| 20260903100038 | 73 | 213 | 7.0 | 10.0 | 0.00 | 0.00 | 0.00 | 55 | 1010.1 |
| 20260903095534 | 72 | 206 | 7.0 | 10.0 | 0.00 | 0.00 | 0.00 | 55 | 1010.1 |
| 20260903095033 | 72 | 188 | 7.0 | 10.0 | 0.00 | 0.00 | 0.00 | 55 | 1010.2 |
| 20260903094534 | 73 | 196 | 7.0 | 10.0 | 0.00 | 0.00 | 0.00 | 55 | 1010.3 |
| 20260903094305 | 72 | 194 | 7.0 | 10.0 | 0.00 | 0.00 | 0.00 | 56 | 1010.2 |
| 20260903093532 | 72 | 180 | 7.0 | 9.0 | 0.00 | 0.00 | 0.00 | 56 | 1010.3 |
| 20260903093031 | 72 | 193 | 6.0 | 9.0 | 0.00 | 0.00 | 0.00 | 56 | 1010.3 |
| 20260903092532 | 72 | 194 | 5.0 | 10.0 | 0.00 | 0.00 | 0.00 | 56 | 1010.2 |
| 20260903092033 | 72 | 186 | 6.0 | 11.0 | 0.00 | 0.00 | 0.00 | 56 | 1010.2 |
| 20260903091532 | 72 | 200 | 6.0 | 11.0 | 0.00 | 0.00 | 0.00 | 57 | 1010.1 |
| 20260903091032 | 72 | 173 | 5.0 | 8.0 | 0.00 | 0.00 | 0.00 | 58 | 1010.2 |
| 20260903090532 | 71 | 217 | 4.0 | 8.0 | 0.00 | 0.00 | 0.00 | 58 | 1010.2 |
| 20260903090032 | 71 | 164 | 4.0 | 7.0 | 0.00 | 0.00 | 0.00 | 58 | 1010.3 |
| 20260903085741 | 71 | 0 | 5.0 | 7.0 | 0.00 | 0.00 | 0.00 | 59 | 1010.2 |
| 20260903085011 | 71 | 193 | 4.0 | 6.0 | 0.00 | 0.00 | 0.00 | 59 | 1010.2 |
| 20260903084510 | 71 | 191 | 4.0 | 6.0 | 0.00 | 0.00 | 0.00 | 59 | 1010.2 |
| 20260903084009 | 71 | 173 | 4.0 | 6.0 | 0.00 | 0.00 | 0.00 | 59 | 1010.2 |
| 20260903083508 | 72 | 207 | 5.0 | 8.0 | 0.00 | 0.00 | 0.00 | 59 | 1010.2 |
| 20260903083004 | 72 | 205 | 5.0 | 8.0 | 0.00 | 0.00 | 0.00 | 60 | 1010.1 |
| 20260903082504 | 71 | 210 | 4.0 | 6.0 | 0.00 | 0.00 | 0.00 | 60 | 1010.2 |
| 20260903082003 | 72 | 191 | 4.0 | 6.0 | 0.00 | 0.00 | 0.00 | 59 | 1010.1 |
| 20260903081502 | 72 | 212 | 5.0 | 7.0 | 0.00 | 0.00 | 0.00 | 59 | 1010.2 |
| 20260903081233 | 72 | 186 | 5.0 | 8.0 | 0.00 | 0.00 | 0.00 | 58 | 1010.2 |
| 20260903080731 | 72 | 199 | 6.0 | 9.0 | 0.00 | 0.00 | 0.00 | 58 | 1010.2 |
| 20260903075958 | 72 | 223 | 6.0 | 9.0 | 0.00 | 0.00 | 0.00 | 58 | 1010.2 |
| 20260903075458 | 72 | 200 | 6.0 | 8.0 | 0.00 | 0.00 | 0.00 | 58 | 1010.2 |
| 20260903074955 | 73 | 211 | 5.0 | 8.0 | 0.00 | 0.00 | 0.00 | 58 | 1010.2 |
| 20260903074456 | 73 | 217 | 5.0 | 8.0 | 0.00 | 0.00 | 0.00 | 58 | 1010.2 |
| 20260903073956 | 73 | 226 | 6.0 | 8.0 | 0.00 | 0.00 | 0.00 | 58 | 1010.3 |
| 20260903073455 | 73 | 225 | 6.0 | 8.0 | 0.00 | 0.00 | 0.00 | 58 | 1010.3 |
| 20260903073333 | 73 | 198 | 5.0 | 7.0 | 0.00 | 0.00 | 0.00 | 58 | 1010.3 |
| 20260903073227 | 73 | 213 | 6.0 | 7.0 | 0.00 | 0.00 | 0.00 | 58 | 1010.2 |
| 20260903071953 | 73 | 195 | 6.0 | 9.0 | 0.00 | 0.00 | 0.00 | 57 | 1010.2 |
| 20260903071454 | 73 | 199 | 6.0 | 9.0 | 0.00 | 0.00 | 0.00 | 57 | 1010.2 |
| 20260903070952 | 73 | 207 | 6.0 | 8.0 | 0.00 | 0.00 | 0.00 | 56 | 1010.2 |
| 20260903070723 | 73 | 180 | 5.0 | 8.0 | 0.00 | 0.00 | 0.00 | 56 | 1010.3 |
| 20260903065950 | 74 | 212 | 5.0 | 9.0 | 0.00 | 0.00 | 0.00 | 55 | 1010.2 |
| 20260903065449 | 74 | 206 | 6.0 | 9.0 | 0.00 | 0.00 | 0.00 | 54 | 1010.3 |
| 20260903064950 | 75 | 196 | 6.0 | 8.0 | 0.00 | 0.00 | 0.00 | 53 | 1010.4 |
| 20260903064450 | 75 | 217 | 6.0 | 9.0 | 0.00 | 0.00 | 0.00 | 52 | 1010.3 |
| 20260903063949 | 76 | 223 | 7.0 | 10.0 | 0.00 | 0.00 | 0.00 | 51 | 1010.2 |
| 20260903063449 | 76 | 196 | 7.0 | 10.0 | 0.00 | 0.00 | 0.00 | 51 | 1010.3 |
| 20260903062950 | 76 | 195 | 7.0 | 10.0 | 0.00 | 0.00 | 0.00 | 51 | 1010.2 |
| 20260903062448 | 76 | 165 | 6.0 | 10.0 | 0.00 | 0.00 | 0.00 | 51 | 1010.1 |
| 20260903061945 | 76 | 203 | 5.0 | 8.0 | 0.00 | 0.00 | 0.00 | 51 | 1010.2 |
| 20260903061446 | 76 | 195 | 6.0 | 8.0 | 0.00 | 0.00 | 0.00 | 51 | 1010.1 |
| 20260903060942 | 76 | 191 | 6.0 | 9.0 | 0.00 | 0.00 | 0.00 | 51 | 1010.1 |
| 20260903060441 | 76 | 158 | 5.0 | 9.0 | 0.00 | 0.00 | 0.00 | 51 | 1010.1 |
| 20260903055941 | 76 | 198 | 5.0 | 9.0 | 0.00 | 0.00 | 0.00 | 51 | 1010.1 |
| 20260903055440 | 76 | 207 | 5.0 | 9.0 | 0.00 | 0.00 | 0.00 | 51 | 1010.0 |
| 20260903054937 | 76 | 183 | 6.0 | 9.0 | 0.00 | 0.00 | 0.00 | 51 | 1010.0 |
| 20260903054437 | 76 | 201 | 5.0 | 8.0 | 0.00 | 0.00 | 0.00 | 52 | 1010.0 |
| 20260903053938 | 76 | 174 | 5.0 | 8.0 | 0.00 | 0.00 | 0.00 | 52 | 1009.9 |
| 20260903053437 | 76 | 180 | 6.0 | 8.0 | 0.00 | 0.00 | 0.00 | 52 | 1009.9 |
| 20260903053206 | 76 | 188 | 5.0 | 8.0 | 0.00 | 0.00 | 0.00 | 52 | 1009.9 |
| 20260903052706 | 76 | 201 | 4.0 | 8.0 | 0.00 | 0.00 | 0.00 | 52 | 1009.9 |
| 20260903051936 | 76 | 163 | 4.0 | 7.0 | 0.00 | 0.00 | 0.00 | 51 | 1009.8 |
| 20260903051435 | 77 | 161 | 4.0 | 7.0 | 0.00 | 0.00 | 0.00 | 51 | 1009.8 |
| 20260903050939 | 77 | 172 | 6.0 | 9.0 | 0.00 | 0.00 | 0.00 | 50 | 1009.9 |
| 20260903050935 | 77 | 188 | 5.0 | 9.0 | 0.00 | 0.00 | 0.00 | 50 | 1009.8 |
| 20260903045934 | 77 | 189 | 6.0 | 9.0 | 0.00 | 0.00 | 0.00 | 50 | 1009.9 |
| 20260903045434 | 78 | 189 | 5.0 | 7.0 | 0.00 | 0.00 | 0.00 | 49 | 1009.9 |
| 20260903044935 | 78 | 216 | 4.0 | 7.0 | 0.00 | 0.00 | 0.00 | 49 | 1009.9 |
| 20260903044432 | 78 | 195 | 4.0 | 6.0 | 0.00 | 0.00 | 0.00 | 48 | 1009.8 |
| 20260903043935 | 78 | 203 | 3.0 | 5.0 | 0.00 | 0.00 | 0.00 | 48 | 1009.8 |
| 20260903043931 | 78 | 205 | 3.0 | 6.0 | 0.00 | 0.00 | 0.00 | 48 | 1009.8 |
| 20260903042935 | 79 | 182 | 4.0 | 7.0 | 0.00 | 0.00 | 0.00 | 47 | 1009.8 |
| 20260903042930 | 79 | 160 | 3.0 | 6.0 | 0.00 | 0.00 | 0.00 | 47 | 1009.9 |
| 20260903041927 | 79 | 193 | 4.0 | 9.0 | 0.00 | 0.00 | 0.00 | 47 | 1009.9 |
| 20260903041433 | 80 | 178 | 5.0 | 8.0 | 0.00 | 0.00 | 0.00 | 46 | 1010.0 |
| 20260903041429 | 79 | 198 | 5.0 | 9.0 | 0.00 | 0.00 | 0.00 | 46 | 1009.9 |
| 20260903040656 | 80 | 208 | 5.0 | 7.0 | 0.00 | 0.00 | 0.00 | 46 | 1010.0 |
| 20260903035926 | 80 | 187 | 5.0 | 8.0 | 0.00 | 0.00 | 0.00 | 45 | 1010.0 |
| 20260903035426 | 81 | 158 | 5.0 | 8.0 | 0.00 | 0.00 | 0.00 | 44 | 1009.9 |
| 20260903034924 | 81 | 162 | 6.0 | 10.0 | 0.00 | 0.00 | 0.00 | 43 | 1010.0 |
| 20260903034423 | 82 | 186 | 6.0 | 10.0 | 0.00 | 0.00 | 0.00 | 43 | 1010.0 |
| 20260903033923 | 81 | 198 | 5.0 | 10.0 | 0.00 | 0.00 | 0.00 | 43 | 1009.9 |
| 20260903033425 | 82 | 156 | 5.0 | 8.0 | 0.00 | 0.00 | 0.00 | 42 | 1009.9 |
| 20260903032924 | 82 | 164 | 6.0 | 10.0 | 0.00 | 0.00 | 0.00 | 42 | 1009.9 |
| 20260903032424 | 81 | 148 | 4.0 | 10.0 | 0.00 | 0.00 | 0.00 | 43 | 1009.8 |
| 20260903031920 | 81 | 160 | 4.0 | 8.0 | 0.00 | 0.00 | 0.00 | 44 | 1009.8 |
| 20260903031419 | 81 | 186 | 5.0 | 10.0 | 0.00 | 0.00 | 0.00 | 43 | 1009.8 |
| 20260903030919 | 82 | 154 | 5.0 | 10.0 | 0.00 | 0.00 | 0.00 | 43 | 1009.7 |
| 20260903030418 | 82 | 143 | 4.0 | 10.0 | 0.00 | 0.00 | 0.00 | 43 | 1009.7 |
| 20260903025917 | 82 | 123 | 4.0 | 7.0 | 0.00 | 0.00 | 0.00 | 43 | 1009.6 |
| 20260903025648 | 82 | 147 | 5.0 | 7.0 | 0.00 | 0.00 | 0.00 | 43 | 1009.5 |
| 20260903024918 | 82 | 165 | 5.0 | 9.0 | 0.00 | 0.00 | 0.00 | 43 | 1009.4 |
| 20260903024418 | 83 | 154 | 5.0 | 9.0 | 0.00 | 0.00 | 0.00 | 43 | 1009.3 |
| 20260903023915 | 83 | 163 | 5.0 | 7.0 | 0.00 | 0.00 | 0.00 | 43 | 1009.3 |
| 20260903023415 | 83 | 169 | 4.0 | 8.0 | 0.00 | 0.00 | 0.00 | 43 | 1009.2 |
| 20260903023145 | 83 | 118 | 4.0 | 8.0 | 0.00 | 0.00 | 0.00 | 43 | 1009.2 |
| 20260903022412 | 83 | 144 | 4.0 | 7.0 | 0.00 | 0.00 | 0.00 | 43 | 1009.2 |
| 20260903022144 | 84 | 106 | 3.0 | 6.0 | 0.00 | 0.00 | 0.00 | 42 | 1009.2 |
| 20260903021411 | 84 | 115 | 3.0 | 6.0 | 0.00 | 0.00 | 0.00 | 41 | 1009.1 |
| 20260903020911 | 85 | 116 | 3.0 | 7.0 | 0.00 | 0.00 | 0.00 | 39 | 1009.0 |
| 20260903020640 | 85 | 117 | 3.0 | 7.0 | 0.00 | 0.00 | 0.00 | 38 | 1008.9 |
| 20260903020516 | 86 | 127 | 3.0 | 7.0 | 0.00 | 0.00 | 0.00 | 37 | 1008.9 |
| 20260903015408 | 87 | 102 | 5.0 | 8.0 | 0.00 | 0.00 | 0.00 | 36 | 1008.9 |
| 20260903014908 | 87 | 133 | 6.0 | 9.0 | 0.00 | 0.00 | 0.00 | 35 | 1008.9 |
| 20260903014407 | 87 | 159 | 7.0 | 9.0 | 0.00 | 0.00 | 0.00 | 35 | 1008.8 |
| 20260903013907 | 87 | 164 | 6.0 | 9.0 | 0.00 | 0.00 | 0.00 | 34 | 1008.7 |
| 20260903013405 | 88 | 151 | 6.0 | 9.0 | 0.00 | 0.00 | 0.00 | 34 | 1008.8 |
| 20260903012906 | 88 | 154 | 7.0 | 9.0 | 0.00 | 0.00 | 0.00 | 33 | 1008.7 |
| 20260903012406 | 88 | 167 | 8.0 | 11.0 | 0.00 | 0.00 | 0.00 | 34 | 1008.6 |
| 20260903011905 | 89 | 146 | 8.0 | 12.0 | 0.00 | 0.00 | 0.00 | 34 | 1008.6 |
| 20260903011405 | 89 | 146 | 8.0 | 12.0 | 0.00 | 0.00 | 0.00 | 33 | 1008.6 |
| 20260903010904 | 89 | 160 | 9.0 | 13.0 | 0.00 | 0.00 | 0.00 | 33 | 1008.6 |
| 20260903010402 | 90 | 145 | 10.0 | 16.0 | 0.00 | 0.00 | 0.00 | 33 | 1008.5 |
| 20260903005901 | 90 | 160 | 11.0 | 16.0 | 0.00 | 0.00 | 0.00 | 33 | 1008.5 |
| 20260903005630 | 90 | 165 | 10.0 | 16.0 | 0.00 | 0.00 | 0.00 | 33 | 1008.5 |
| 20260903004859 | 91 | 155 | 10.0 | 16.0 | 0.00 | 0.00 | 0.00 | 33 | 1008.4 |
| 20260903004359 | 91 | 0 | 11.0 | 18.0 | 0.00 | 0.00 | 0.00 | 33 | 1008.4 |
| 20260903003900 | 91 | 0 | 12.0 | 18.0 | 0.00 | 0.00 | 0.00 | 33 | 1008.4 |
| 20260903003401 | 91 | 181 | 11.0 | 17.0 | 0.00 | 0.00 | 0.00 | 32 | 1008.5 |
| 20260903002859 | 91 | 160 | 11.0 | 16.0 | 0.00 | 0.00 | 0.00 | 32 | 1008.5 |
| 20260903002359 | 92 | 128 | 11.0 | 16.0 | 0.00 | 0.00 | 0.00 | 31 | 1008.6 |
| 20260903001853 | 92 | 186 | 11.0 | 16.0 | 0.00 | 0.00 | 0.00 | 30 | 1008.5 |
| 20260903001353 | 92 | 164 | 11.0 | 16.0 | 0.00 | 0.00 | 0.00 | 30 | 1008.5 |
| 20260903000853 | 91 | 158 | 12.0 | 17.0 | 0.00 | 0.00 | 0.00 | 30 | 1008.6 |
| 20260903000355 | 91 | 0 | 12.0 | 17.0 | 0.00 | 0.00 | 0.00 | 30 | 1008.6 |
| 20260902235852 | 91 | 165 | 12.0 | 18.0 | 0.00 | 0.00 | 0.00 | 31 | 1008.6 |
| 20260902235351 | 91 | 146 | 14.0 | 19.0 | 0.00 | 0.00 | 0.00 | 31 | 1008.6 |
| 20260902234851 | 91 | 158 | 14.0 | 19.0 | 0.00 | 0.00 | 0.00 | 31 | 1008.7 |
| 20260902234349 | 91 | 134 | 13.0 | 19.0 | 0.00 | 0.00 | 0.00 | 33 | 1008.6 |
| 20260902233849 | 91 | 156 | 12.0 | 19.0 | 0.00 | 0.00 | 0.00 | 33 | 1008.6 |
| 20260902233351 | 91 | 154 | 12.0 | 19.0 | 0.00 | 0.00 | 0.00 | 34 | 1008.6 |
| 20260902232848 | 91 | 166 | 11.0 | 17.0 | 0.00 | 0.00 | 0.00 | 34 | 1008.7 |
| 20260902232347 | 91 | 129 | 11.0 | 17.0 | 0.00 | 0.00 | 0.00 | 34 | 1008.7 |
| 20260902231845 | 91 | 149 | 12.0 | 18.0 | 0.00 | 0.00 | 0.00 | 34 | 1008.6 |
| 20260902231345 | 92 | 175 | 13.0 | 19.0 | 0.00 | 0.00 | 0.00 | 33 | 1008.5 |
| 20260902230843 | 92 | 161 | 13.0 | 19.0 | 0.00 | 0.00 | 0.00 | 33 | 1008.5 |
| 20260902230343 | 92 | 0 | 14.0 | 21.0 | 0.00 | 0.00 | 0.00 | 32 | 1008.6 |
| 20260902225843 | 92 | 195 | 15.0 | 22.0 | 0.00 | 0.00 | 0.00 | 32 | 1008.6 |
| 20260902225343 | 93 | 140 | 15.0 | 23.0 | 0.00 | 0.00 | 0.00 | 32 | 1008.6 |
| 20260902224843 | 93 | 158 | 15.0 | 23.0 | 0.00 | 0.00 | 0.00 | 29 | 1008.5 |
| 20260902224343 | 93 | 196 | 15.0 | 21.0 | 0.00 | 0.00 | 0.00 | 29 | 1008.4 |
| 20260902223843 | 93 | 169 | 14.0 | 20.0 | 0.00 | 0.00 | 0.00 | 30 | 1008.6 |
| 20260902223343 | 93 | 205 | 13.0 | 20.0 | 0.00 | 0.00 | 0.00 | 30 | 1008.5 |
| 20260902222843 | 93 | 0 | 14.0 | 23.0 | 0.00 | 0.00 | 0.00 | 31 | 1008.7 |
| 20260902222343 | 92 | 188 | 14.0 | 23.0 | 0.00 | 0.00 | 0.00 | 32 | 1008.7 |
| 20260902221844 | 93 | 197 | 15.0 | 23.0 | 0.00 | 0.00 | 0.00 | 33 | 1008.7 |
| 20260902221343 | 92 | 185 | 16.0 | 24.0 | 0.00 | 0.00 | 0.00 | 33 | 1008.7 |
| 20260902221114 | 93 | 209 | 15.0 | 24.0 | 0.00 | 0.00 | 0.00 | 34 | 1008.6 |
| 20260902220348 | 93 | 193 | 13.0 | 20.0 | 0.00 | 0.00 | 0.00 | 32 | 1008.7 |
| 20260902220344 | 93 | 138 | 13.0 | 20.0 | 0.00 | 0.00 | 0.00 | 32 | 1008.6 |
| 20260902215343 | 92 | 0 | 14.0 | 23.0 | 0.00 | 0.00 | 0.00 | 33 | 1008.8 |
| 20260902215118 | 92 | 173 | 12.0 | 20.0 | 0.00 | 0.00 | 0.00 | 33 | 1009.0 |
| 20260902214843 | 92 | 170 | 13.0 | 23.0 | 0.00 | 0.00 | 0.00 | 33 | 1008.9 |
| 20260902214112 | 92 | 143 | 13.0 | 21.0 | 0.00 | 0.00 | 0.00 | 32 | 1009.1 |
| 20260902213341 | 92 | 160 | 14.0 | 23.0 | 0.00 | 0.00 | 0.00 | 30 | 1009.1 |
| 20260902212843 | 91 | 96 | 13.0 | 20.0 | 0.00 | 0.00 | 0.00 | 32 | 1009.3 |
| 20260902212839 | 92 | 146 | 13.0 | 23.0 | 0.00 | 0.00 | 0.00 | 31 | 1009.1 |
| 20260902211839 | 91 | 141 | 14.0 | 20.0 | 0.00 | 0.00 | 0.00 | 32 | 1009.2 |
| 20260902211336 | 91 | 0 | 13.0 | 20.0 | 0.00 | 0.00 | 0.00 | 33 | 1009.3 |
| 20260902210837 | 90 | 228 | 14.0 | 20.0 | 0.00 | 0.00 | 0.00 | 34 | 1009.4 |
| 20260902210608 | 89 | 184 | 16.0 | 22.0 | 0.00 | 0.00 | 0.00 | 35 | 1009.5 |
| 20260902205836 | 89 | 141 | 18.0 | 28.0 | 0.00 | 0.00 | 0.00 | 37 | 1009.6 |
| 20260902205336 | 88 | 0 | 19.0 | 28.0 | 0.00 | 0.00 | 0.00 | 39 | 1009.7 |
| 20260902205103 | 89 | 148 | 18.0 | 27.0 | 0.00 | 0.00 | 0.00 | 36 | 1009.7 |
| 20260902204333 | 91 | 172 | 18.0 | 27.0 | 0.00 | 0.00 | 0.00 | 36 | 1009.8 |
| 20260902203833 | 91 | 182 | 17.0 | 27.0 | 0.00 | 0.00 | 0.00 | 35 | 1009.8 |
| 20260902203331 | 92 | 208 | 14.0 | 25.0 | 0.00 | 0.00 | 0.00 | 33 | 1009.9 |
| 20260902202828 | 92 | 155 | 12.0 | 20.0 | 0.00 | 0.00 | 0.00 | 32 | 1009.9 |
| 20260902202326 | 92 | 148 | 12.0 | 20.0 | 0.00 | 0.00 | 0.00 | 34 | 1009.9 |
| 20260902201827 | 92 | 143 | 13.0 | 22.0 | 0.00 | 0.00 | 0.00 | 33 | 1010.1 |
| 20260902201325 | 92 | 158 | 17.0 | 28.0 | 0.00 | 0.00 | 0.00 | 34 | 1010.2 |
| 20260902200823 | 92 | 173 | 13.0 | 28.0 | 0.00 | 0.00 | 0.00 | 33 | 1010.2 |
| 20260902200322 | 93 | 203 | 5.0 | 20.0 | 0.00 | 0.00 | 0.00 | 32 | 1010.2 |
| 20260902195824 | 92 | 285 | 3.0 | 9.0 | 0.00 | 0.00 | 0.00 | 35 | 1010.2 |
| 20260902195554 | 91 | 236 | 4.0 | 9.0 | 0.00 | 0.00 | 0.00 | 36 | 1010.4 |
| 20260902194824 | 90 | 0 | 5.0 | 13.0 | 0.00 | 0.00 | 0.00 | 36 | 1010.5 |
| 20260902194819 | 90 | 276 | 6.0 | 13.0 | 0.00 | 0.00 | 0.00 | 39 | 1010.6 |
| 20260902193819 | 89 | 148 | 4.0 | 8.0 | 0.00 | 0.00 | 0.00 | 41 | 1010.6 |
| 20260902193317 | 88 | 266 | 4.0 | 8.0 | 0.00 | 0.00 | 0.00 | 40 | 1010.4 |